sensor_id;sensor_type;location;lat;lon;timestamp;P1;durP1;ratioP1;P2;durP2;ratioP2
3407;SDS011;1717;50.240;8.406;2022-12-10T00:01:43;21.98;;;13.60;;
3407;SDS011;1717;50.240;8.406;2022-12-10T00:04:10;22.60;;;13.87;;
3407;SDS011;1717;50.240;8.406;2022-12-10T00:06:38;23.63;;;15.77;;
3407;SDS011;1717;50.240;8.406;2022-12-10T00:09:06;20.77;;;13.90;;
3407;SDS011;1717;50.240;8.406;2022-12-10T00:11:34;22.70;;;14.60;;
3407;SDS011;1717;50.240;8.406;2022-12-10T00:14:02;21.33;;;13.98;;
3407;SDS011;1717;50.240;8.406;2022-12-10T00:16:29;21.45;;;14.48;;
3407;SDS011;1717;50.240;8.406;2022-12-10T00:18:59;23.70;;;14.98;;
3407;SDS011;1717;50.240;8.406;2022-12-10T00:21:27;23.77;;;14.00;;
3407;SDS011;1717;50.240;8.406;2022-12-10T00:23:56;23.80;;;13.43;;
3407;SDS011;1717;50.240;8.406;2022-12-10T00:26:24;22.52;;;13.13;;
3407;SDS011;1717;50.240;8.406;2022-12-10T00:28:52;22.70;;;14.17;;
3407;SDS011;1717;50.240;8.406;2022-12-10T00:31:21;24.42;;;13.52;;
3407;SDS011;1717;50.240;8.406;2022-12-10T00:33:49;18.10;;;12.13;;
3407;SDS011;1717;50.240;8.406;2022-12-10T00:36:19;22.70;;;13.53;;
3407;SDS011;1717;50.240;8.406;2022-12-10T00:38:47;19.30;;;11.73;;
3407;SDS011;1717;50.240;8.406;2022-12-10T00:41:15;27.75;;;14.40;;
3407;SDS011;1717;50.240;8.406;2022-12-10T00:43:42;23.17;;;14.13;;
3407;SDS011;1717;50.240;8.406;2022-12-10T00:46:10;19.75;;;13.65;;
3407;SDS011;1717;50.240;8.406;2022-12-10T00:48:37;17.80;;;11.83;;
3407;SDS011;1717;50.240;8.406;2022-12-10T00:51:05;19.27;;;10.80;;
3407;SDS011;1717;50.240;8.406;2022-12-10T00:53:39;18.20;;;12.40;;
3407;SDS011;1717;50.240;8.406;2022-12-10T00:56:06;20.63;;;12.73;;
3407;SDS011;1717;50.240;8.406;2022-12-10T00:58:35;20.45;;;12.45;;
3407;SDS011;1717;50.240;8.406;2022-12-10T01:01:06;20.35;;;13.35;;
3407;SDS011;1717;50.240;8.406;2022-12-10T01:03:34;17.15;;;11.32;;
3407;SDS011;1717;50.240;8.406;2022-12-10T01:06:07;18.98;;;12.32;;
3407;SDS011;1717;50.240;8.406;2022-12-10T01:08:35;17.30;;;12.40;;
3407;SDS011;1717;50.240;8.406;2022-12-10T01:11:03;21.90;;;12.95;;
3407;SDS011;1717;50.240;8.406;2022-12-10T01:13:30;21.05;;;13.65;;
3407;SDS011;1717;50.240;8.406;2022-12-10T01:15:59;20.17;;;11.55;;
3407;SDS011;1717;50.240;8.406;2022-12-10T01:18:27;18.88;;;12.13;;
3407;SDS011;1717;50.240;8.406;2022-12-10T01:20:53;18.77;;;11.50;;
3407;SDS011;1717;50.240;8.406;2022-12-10T01:23:20;19.02;;;11.80;;
3407;SDS011;1717;50.240;8.406;2022-12-10T01:25:47;16.42;;;11.85;;
3407;SDS011;1717;50.240;8.406;2022-12-10T01:28:15;19.70;;;12.68;;
3407;SDS011;1717;50.240;8.406;2022-12-10T01:30:42;19.15;;;11.90;;
3407;SDS011;1717;50.240;8.406;2022-12-10T01:33:09;22.60;;;13.00;;
3407;SDS011;1717;50.240;8.406;2022-12-10T01:35:36;16.65;;;11.55;;
3407;SDS011;1717;50.240;8.406;2022-12-10T01:38:03;20.48;;;12.38;;
3407;SDS011;1717;50.240;8.406;2022-12-10T01:40:29;21.58;;;13.27;;
3407;SDS011;1717;50.240;8.406;2022-12-10T01:42:56;19.75;;;11.93;;
3407;SDS011;1717;50.240;8.406;2022-12-10T01:45:27;17.23;;;11.25;;
3407;SDS011;1717;50.240;8.406;2022-12-10T01:47:54;17.23;;;10.68;;
3407;SDS011;1717;50.240;8.406;2022-12-10T01:50:21;17.65;;;11.48;;
3407;SDS011;1717;50.240;8.406;2022-12-10T01:52:48;16.67;;;10.90;;
3407;SDS011;1717;50.240;8.406;2022-12-10T01:58:17;21.60;;;11.80;;
3407;SDS011;1717;50.240;8.406;2022-12-10T02:00:59;18.60;;;11.52;;
3407;SDS011;1717;50.240;8.406;2022-12-10T02:03:35;21.65;;;12.63;;
3407;SDS011;1717;50.240;8.406;2022-12-10T02:06:20;20.63;;;12.50;;
3407;SDS011;1717;50.240;8.406;2022-12-10T02:08:56;17.55;;;10.80;;
3407;SDS011;1717;50.240;8.406;2022-12-10T02:11:32;18.80;;;10.80;;
3407;SDS011;1717;50.240;8.406;2022-12-10T02:14:08;22.15;;;12.05;;
3407;SDS011;1717;50.240;8.406;2022-12-10T02:16:40;18.10;;;11.70;;
3407;SDS011;1717;50.240;8.406;2022-12-10T02:19:13;17.98;;;11.40;;
3407;SDS011;1717;50.240;8.406;2022-12-10T02:21:46;17.70;;;10.80;;
3407;SDS011;1717;50.240;8.406;2022-12-10T02:24:15;15.30;;;10.07;;
3407;SDS011;1717;50.240;8.406;2022-12-10T02:26:49;18.02;;;11.55;;
3407;SDS011;1717;50.240;8.406;2022-12-10T02:29:24;17.40;;;11.45;;
3407;SDS011;1717;50.240;8.406;2022-12-10T02:31:53;16.23;;;10.75;;
3407;SDS011;1717;50.240;8.406;2022-12-10T02:34:27;18.02;;;11.30;;
3407;SDS011;1717;50.240;8.406;2022-12-10T02:37:00;17.27;;;11.02;;
3407;SDS011;1717;50.240;8.406;2022-12-10T02:39:31;18.73;;;11.98;;
3407;SDS011;1717;50.240;8.406;2022-12-10T02:42:03;19.50;;;11.75;;
3407;SDS011;1717;50.240;8.406;2022-12-10T02:44:33;16.90;;;11.05;;
3407;SDS011;1717;50.240;8.406;2022-12-10T02:47:03;17.85;;;10.15;;
3407;SDS011;1717;50.240;8.406;2022-12-10T02:49:31;17.95;;;11.30;;
3407;SDS011;1717;50.240;8.406;2022-12-10T02:52:04;17.13;;;10.60;;
3407;SDS011;1717;50.240;8.406;2022-12-10T02:54:34;17.97;;;11.47;;
3407;SDS011;1717;50.240;8.406;2022-12-10T02:57:06;16.60;;;10.57;;
3407;SDS011;1717;50.240;8.406;2022-12-10T02:59:51;17.20;;;11.55;;
3407;SDS011;1717;50.240;8.406;2022-12-10T03:02:39;16.65;;;11.15;;
3407;SDS011;1717;50.240;8.406;2022-12-10T03:05:17;15.20;;;9.82;;
3407;SDS011;1717;50.240;8.406;2022-12-10T03:07:49;18.83;;;11.00;;
3407;SDS011;1717;50.240;8.406;2022-12-10T03:10:24;16.30;;;10.82;;
3407;SDS011;1717;50.240;8.406;2022-12-10T03:12:54;18.58;;;11.10;;
3407;SDS011;1717;50.240;8.406;2022-12-10T03:15:27;14.98;;;10.50;;
3407;SDS011;1717;50.240;8.406;2022-12-10T03:17:56;16.50;;;11.55;;
3407;SDS011;1717;50.240;8.406;2022-12-10T03:20:25;14.00;;;9.95;;
3407;SDS011;1717;50.240;8.406;2022-12-10T03:22:52;19.17;;;10.95;;
3407;SDS011;1717;50.240;8.406;2022-12-10T03:25:22;17.40;;;10.52;;
3407;SDS011;1717;50.240;8.406;2022-12-10T03:27:51;15.73;;;9.88;;
3407;SDS011;1717;50.240;8.406;2022-12-10T03:30:21;15.95;;;10.02;;
3407;SDS011;1717;50.240;8.406;2022-12-10T03:32:49;17.98;;;11.07;;
3407;SDS011;1717;50.240;8.406;2022-12-10T03:35:17;19.10;;;11.82;;
3407;SDS011;1717;50.240;8.406;2022-12-10T03:37:48;17.70;;;11.30;;
3407;SDS011;1717;50.240;8.406;2022-12-10T03:40:16;20.25;;;11.25;;
3407;SDS011;1717;50.240;8.406;2022-12-10T03:42:46;14.35;;;9.48;;
3407;SDS011;1717;50.240;8.406;2022-12-10T03:45:12;16.38;;;10.50;;
3407;SDS011;1717;50.240;8.406;2022-12-10T03:47:39;17.00;;;10.33;;
3407;SDS011;1717;50.240;8.406;2022-12-10T03:50:08;14.50;;;10.40;;
3407;SDS011;1717;50.240;8.406;2022-12-10T03:52:35;15.05;;;9.90;;
3407;SDS011;1717;50.240;8.406;2022-12-10T03:55:02;18.23;;;12.57;;
3407;SDS011;1717;50.240;8.406;2022-12-10T03:57:29;15.65;;;10.65;;
3407;SDS011;1717;50.240;8.406;2022-12-10T03:59:56;16.53;;;10.83;;
3407;SDS011;1717;50.240;8.406;2022-12-10T04:02:23;17.92;;;10.48;;
3407;SDS011;1717;50.240;8.406;2022-12-10T04:04:50;17.98;;;10.90;;
3407;SDS011;1717;50.240;8.406;2022-12-10T04:07:18;15.40;;;10.00;;
3407;SDS011;1717;50.240;8.406;2022-12-10T04:09:45;16.52;;;10.48;;
3407;SDS011;1717;50.240;8.406;2022-12-10T04:12:11;15.80;;;9.85;;
3407;SDS011;1717;50.240;8.406;2022-12-10T04:14:38;15.05;;;11.13;;
3407;SDS011;1717;50.240;8.406;2022-12-10T04:17:23;17.88;;;10.50;;
3407;SDS011;1717;50.240;8.406;2022-12-10T04:19:50;17.75;;;10.35;;
3407;SDS011;1717;50.240;8.406;2022-12-10T04:22:18;16.27;;;10.18;;
3407;SDS011;1717;50.240;8.406;2022-12-10T04:25:02;17.33;;;10.57;;
3407;SDS011;1717;50.240;8.406;2022-12-10T04:27:47;14.68;;;9.45;;
3407;SDS011;1717;50.240;8.406;2022-12-10T04:30:14;17.55;;;10.60;;
3407;SDS011;1717;50.240;8.406;2022-12-10T04:32:41;16.75;;;10.27;;
3407;SDS011;1717;50.240;8.406;2022-12-10T04:35:08;17.10;;;11.05;;
3407;SDS011;1717;50.240;8.406;2022-12-10T04:37:37;17.40;;;11.10;;
3407;SDS011;1717;50.240;8.406;2022-12-10T04:40:04;15.80;;;10.82;;
3407;SDS011;1717;50.240;8.406;2022-12-10T04:42:32;14.02;;;10.07;;
3407;SDS011;1717;50.240;8.406;2022-12-10T04:44:58;15.77;;;11.05;;
3407;SDS011;1717;50.240;8.406;2022-12-10T04:47:25;18.38;;;11.65;;
3407;SDS011;1717;50.240;8.406;2022-12-10T04:49:52;14.90;;;10.10;;
3407;SDS011;1717;50.240;8.406;2022-12-10T04:52:19;16.65;;;12.75;;
3407;SDS011;1717;50.240;8.406;2022-12-10T04:54:47;17.83;;;10.77;;
3407;SDS011;1717;50.240;8.406;2022-12-10T04:57:14;18.38;;;11.10;;
3407;SDS011;1717;50.240;8.406;2022-12-10T04:59:40;19.83;;;11.00;;
3407;SDS011;1717;50.240;8.406;2022-12-10T05:02:08;13.73;;;9.77;;
3407;SDS011;1717;50.240;8.406;2022-12-10T05:04:35;19.73;;;10.75;;
3407;SDS011;1717;50.240;8.406;2022-12-10T05:07:02;15.40;;;10.48;;
3407;SDS011;1717;50.240;8.406;2022-12-10T05:09:29;13.60;;;9.80;;
3407;SDS011;1717;50.240;8.406;2022-12-10T05:11:59;15.75;;;10.18;;
3407;SDS011;1717;50.240;8.406;2022-12-10T05:14:26;17.27;;;9.60;;
3407;SDS011;1717;50.240;8.406;2022-12-10T05:16:53;15.88;;;9.93;;
3407;SDS011;1717;50.240;8.406;2022-12-10T05:19:19;15.07;;;10.10;;
3407;SDS011;1717;50.240;8.406;2022-12-10T05:21:48;16.38;;;9.60;;
3407;SDS011;1717;50.240;8.406;2022-12-10T05:24:32;17.42;;;10.45;;
3407;SDS011;1717;50.240;8.406;2022-12-10T05:27:01;17.13;;;10.93;;
3407;SDS011;1717;50.240;8.406;2022-12-10T05:29:28;19.15;;;11.85;;
3407;SDS011;1717;50.240;8.406;2022-12-10T05:31:54;16.30;;;10.48;;
3407;SDS011;1717;50.240;8.406;2022-12-10T05:34:21;17.33;;;12.05;;
3407;SDS011;1717;50.240;8.406;2022-12-10T05:36:48;16.52;;;10.77;;
3407;SDS011;1717;50.240;8.406;2022-12-10T05:39:15;15.30;;;10.93;;
3407;SDS011;1717;50.240;8.406;2022-12-10T05:41:42;16.25;;;11.73;;
3407;SDS011;1717;50.240;8.406;2022-12-10T05:44:11;14.77;;;10.30;;
3407;SDS011;1717;50.240;8.406;2022-12-10T05:46:38;14.55;;;9.27;;
3407;SDS011;1717;50.240;8.406;2022-12-10T05:49:05;15.77;;;10.15;;
3407;SDS011;1717;50.240;8.406;2022-12-10T05:51:34;16.35;;;11.52;;
3407;SDS011;1717;50.240;8.406;2022-12-10T05:54:03;17.67;;;11.02;;
3407;SDS011;1717;50.240;8.406;2022-12-10T05:56:31;16.33;;;10.95;;
3407;SDS011;1717;50.240;8.406;2022-12-10T05:58:59;16.52;;;11.20;;
3407;SDS011;1717;50.240;8.406;2022-12-10T06:01:30;15.55;;;10.90;;
3407;SDS011;1717;50.240;8.406;2022-12-10T06:03:59;15.45;;;10.50;;
3407;SDS011;1717;50.240;8.406;2022-12-10T06:06:28;16.95;;;10.82;;
3407;SDS011;1717;50.240;8.406;2022-12-10T06:08:56;19.40;;;11.60;;
3407;SDS011;1717;50.240;8.406;2022-12-10T06:11:23;14.32;;;10.40;;
3407;SDS011;1717;50.240;8.406;2022-12-10T06:13:51;18.13;;;10.20;;
3407;SDS011;1717;50.240;8.406;2022-12-10T06:16:19;17.92;;;10.82;;
3407;SDS011;1717;50.240;8.406;2022-12-10T06:18:48;17.33;;;10.73;;
3407;SDS011;1717;50.240;8.406;2022-12-10T06:21:15;18.00;;;11.38;;
3407;SDS011;1717;50.240;8.406;2022-12-10T06:23:43;15.60;;;10.85;;
3407;SDS011;1717;50.240;8.406;2022-12-10T06:26:11;16.70;;;10.43;;
3407;SDS011;1717;50.240;8.406;2022-12-10T06:28:40;18.17;;;12.20;;
3407;SDS011;1717;50.240;8.406;2022-12-10T06:31:07;16.15;;;10.15;;
3407;SDS011;1717;50.240;8.406;2022-12-10T06:33:34;17.25;;;10.63;;
3407;SDS011;1717;50.240;8.406;2022-12-10T06:36:04;14.95;;;10.77;;
3407;SDS011;1717;50.240;8.406;2022-12-10T06:38:32;19.73;;;12.50;;
3407;SDS011;1717;50.240;8.406;2022-12-10T06:40:59;19.33;;;12.15;;
3407;SDS011;1717;50.240;8.406;2022-12-10T06:43:27;15.88;;;10.82;;
3407;SDS011;1717;50.240;8.406;2022-12-10T06:45:55;16.20;;;10.75;;
3407;SDS011;1717;50.240;8.406;2022-12-10T06:48:21;16.58;;;10.90;;
3407;SDS011;1717;50.240;8.406;2022-12-10T06:50:49;18.77;;;12.10;;
3407;SDS011;1717;50.240;8.406;2022-12-10T06:53:18;14.05;;;9.95;;
3407;SDS011;1717;50.240;8.406;2022-12-10T06:55:45;17.90;;;12.07;;
3407;SDS011;1717;50.240;8.406;2022-12-10T06:58:11;16.58;;;11.10;;
3407;SDS011;1717;50.240;8.406;2022-12-10T07:00:38;13.63;;;9.57;;
3407;SDS011;1717;50.240;8.406;2022-12-10T07:03:05;19.88;;;11.20;;
3407;SDS011;1717;50.240;8.406;2022-12-10T07:05:33;16.55;;;11.10;;
3407;SDS011;1717;50.240;8.406;2022-12-10T07:08:00;19.50;;;11.63;;
3407;SDS011;1717;50.240;8.406;2022-12-10T07:10:28;16.73;;;10.30;;
3407;SDS011;1717;50.240;8.406;2022-12-10T07:12:55;17.77;;;11.30;;
3407;SDS011;1717;50.240;8.406;2022-12-10T07:15:22;17.03;;;11.50;;
3407;SDS011;1717;50.240;8.406;2022-12-10T07:17:50;20.65;;;11.88;;
3407;SDS011;1717;50.240;8.406;2022-12-10T07:20:17;16.80;;;11.68;;
3407;SDS011;1717;50.240;8.406;2022-12-10T07:22:44;19.52;;;11.88;;
3407;SDS011;1717;50.240;8.406;2022-12-10T07:25:11;18.90;;;12.97;;
3407;SDS011;1717;50.240;8.406;2022-12-10T07:27:40;17.35;;;11.40;;
3407;SDS011;1717;50.240;8.406;2022-12-10T07:30:07;12.88;;;8.20;;
3407;SDS011;1717;50.240;8.406;2022-12-10T07:32:35;12.18;;;8.20;;
3407;SDS011;1717;50.240;8.406;2022-12-10T07:35:02;10.93;;;7.30;;
3407;SDS011;1717;50.240;8.406;2022-12-10T07:37:29;10.93;;;7.30;;
3407;SDS011;1717;50.240;8.406;2022-12-10T07:39:56;13.80;;;8.75;;
3407;SDS011;1717;50.240;8.406;2022-12-10T07:42:22;9.90;;;6.88;;
3407;SDS011;1717;50.240;8.406;2022-12-10T07:44:51;11.77;;;7.78;;
3407;SDS011;1717;50.240;8.406;2022-12-10T07:47:17;12.35;;;8.30;;
3407;SDS011;1717;50.240;8.406;2022-12-10T07:49:44;16.58;;;10.55;;
3407;SDS011;1717;50.240;8.406;2022-12-10T07:52:11;18.52;;;11.43;;
3407;SDS011;1717;50.240;8.406;2022-12-10T07:54:38;18.73;;;12.27;;
3407;SDS011;1717;50.240;8.406;2022-12-10T07:57:06;20.60;;;13.00;;
3407;SDS011;1717;50.240;8.406;2022-12-10T07:59:33;19.40;;;12.57;;
3407;SDS011;1717;50.240;8.406;2022-12-10T08:02:02;15.27;;;11.60;;
3407;SDS011;1717;50.240;8.406;2022-12-10T08:04:29;18.38;;;10.90;;
3407;SDS011;1717;50.240;8.406;2022-12-10T08:06:56;18.33;;;11.98;;
3407;SDS011;1717;50.240;8.406;2022-12-10T08:09:23;17.35;;;10.60;;
3407;SDS011;1717;50.240;8.406;2022-12-10T08:11:49;15.05;;;10.15;;
3407;SDS011;1717;50.240;8.406;2022-12-10T08:14:16;20.63;;;12.90;;
3407;SDS011;1717;50.240;8.406;2022-12-10T08:16:43;22.15;;;13.18;;
3407;SDS011;1717;50.240;8.406;2022-12-10T08:19:12;23.30;;;14.40;;
3407;SDS011;1717;50.240;8.406;2022-12-10T08:21:38;18.95;;;11.65;;
3407;SDS011;1717;50.240;8.406;2022-12-10T08:24:06;22.80;;;14.40;;
3407;SDS011;1717;50.240;8.406;2022-12-10T08:26:33;23.45;;;14.13;;
3407;SDS011;1717;50.240;8.406;2022-12-10T08:29:00;21.45;;;12.48;;
3407;SDS011;1717;50.240;8.406;2022-12-10T08:31:27;22.77;;;14.15;;
3407;SDS011;1717;50.240;8.406;2022-12-10T08:33:55;24.95;;;13.55;;
3407;SDS011;1717;50.240;8.406;2022-12-10T08:36:23;25.73;;;14.60;;
3407;SDS011;1717;50.240;8.406;2022-12-10T08:38:50;21.55;;;11.60;;
3407;SDS011;1717;50.240;8.406;2022-12-10T08:41:17;26.92;;;15.25;;
3407;SDS011;1717;50.240;8.406;2022-12-10T08:43:45;23.05;;;13.95;;
3407;SDS011;1717;50.240;8.406;2022-12-10T08:46:13;24.08;;;13.57;;
3407;SDS011;1717;50.240;8.406;2022-12-10T08:48:41;23.10;;;13.68;;
3407;SDS011;1717;50.240;8.406;2022-12-10T08:51:08;21.75;;;12.95;;
3407;SDS011;1717;50.240;8.406;2022-12-10T08:53:38;24.75;;;14.07;;
3407;SDS011;1717;50.240;8.406;2022-12-10T08:56:05;20.67;;;12.43;;
3407;SDS011;1717;50.240;8.406;2022-12-10T08:58:33;24.17;;;12.50;;
3407;SDS011;1717;50.240;8.406;2022-12-10T09:01:00;26.70;;;14.93;;
3407;SDS011;1717;50.240;8.406;2022-12-10T09:03:32;27.15;;;14.98;;
3407;SDS011;1717;50.240;8.406;2022-12-10T09:06:01;23.38;;;14.07;;
3407;SDS011;1717;50.240;8.406;2022-12-10T09:08:29;24.05;;;12.63;;
3407;SDS011;1717;50.240;8.406;2022-12-10T09:10:57;25.63;;;15.13;;
3407;SDS011;1717;50.240;8.406;2022-12-10T09:13:23;23.27;;;14.50;;
3407;SDS011;1717;50.240;8.406;2022-12-10T09:15:50;24.05;;;13.90;;
3407;SDS011;1717;50.240;8.406;2022-12-10T09:18:18;28.35;;;14.15;;
3407;SDS011;1717;50.240;8.406;2022-12-10T09:20:45;23.48;;;13.85;;
3407;SDS011;1717;50.240;8.406;2022-12-10T09:23:12;21.48;;;13.40;;
3407;SDS011;1717;50.240;8.406;2022-12-10T09:25:39;27.10;;;14.98;;
3407;SDS011;1717;50.240;8.406;2022-12-10T09:28:07;27.00;;;14.20;;
3407;SDS011;1717;50.240;8.406;2022-12-10T09:30:34;20.27;;;12.68;;
3407;SDS011;1717;50.240;8.406;2022-12-10T09:33:01;24.77;;;13.70;;
3407;SDS011;1717;50.240;8.406;2022-12-10T09:35:27;27.02;;;14.95;;
3407;SDS011;1717;50.240;8.406;2022-12-10T09:37:54;25.83;;;15.45;;
3407;SDS011;1717;50.240;8.406;2022-12-10T09:40:24;27.38;;;17.63;;
3407;SDS011;1717;50.240;8.406;2022-12-10T09:43:03;25.02;;;16.45;;
3407;SDS011;1717;50.240;8.406;2022-12-10T09:45:42;30.95;;;18.90;;
3407;SDS011;1717;50.240;8.406;2022-12-10T09:48:20;33.85;;;19.80;;
3407;SDS011;1717;50.240;8.406;2022-12-10T09:50:57;36.85;;;19.75;;
3407;SDS011;1717;50.240;8.406;2022-12-10T09:53:28;33.28;;;18.75;;
3407;SDS011;1717;50.240;8.406;2022-12-10T09:55:56;35.90;;;20.70;;
3407;SDS011;1717;50.240;8.406;2022-12-10T09:58:26;37.90;;;21.33;;
3407;SDS011;1717;50.240;8.406;2022-12-10T10:00:54;30.85;;;19.98;;
3407;SDS011;1717;50.240;8.406;2022-12-10T10:03:24;29.73;;;19.13;;
3407;SDS011;1717;50.240;8.406;2022-12-10T10:05:51;29.90;;;19.90;;
3407;SDS011;1717;50.240;8.406;2022-12-10T10:08:22;30.58;;;18.05;;
3407;SDS011;1717;50.240;8.406;2022-12-10T10:10:55;34.80;;;19.35;;
3407;SDS011;1717;50.240;8.406;2022-12-10T10:13:26;31.98;;;18.35;;
3407;SDS011;1717;50.240;8.406;2022-12-10T10:15:57;30.90;;;18.35;;
3407;SDS011;1717;50.240;8.406;2022-12-10T10:18:39;25.88;;;16.10;;
3407;SDS011;1717;50.240;8.406;2022-12-10T10:21:11;24.30;;;15.82;;
3407;SDS011;1717;50.240;8.406;2022-12-10T10:23:43;24.88;;;14.40;;
3407;SDS011;1717;50.240;8.406;2022-12-10T10:26:11;27.17;;;13.95;;
3407;SDS011;1717;50.240;8.406;2022-12-10T10:28:39;25.17;;;13.98;;
3407;SDS011;1717;50.240;8.406;2022-12-10T10:31:12;31.63;;;15.88;;
3407;SDS011;1717;50.240;8.406;2022-12-10T10:33:48;23.02;;;15.98;;
3407;SDS011;1717;50.240;8.406;2022-12-10T10:36:22;24.45;;;15.25;;
3407;SDS011;1717;50.240;8.406;2022-12-10T10:38:51;23.00;;;14.98;;
3407;SDS011;1717;50.240;8.406;2022-12-10T10:41:18;20.35;;;13.85;;
3407;SDS011;1717;50.240;8.406;2022-12-10T10:43:47;24.27;;;13.60;;
3407;SDS011;1717;50.240;8.406;2022-12-10T10:46:20;24.88;;;14.68;;
3407;SDS011;1717;50.240;8.406;2022-12-10T10:48:48;26.73;;;14.70;;
3407;SDS011;1717;50.240;8.406;2022-12-10T10:51:18;25.83;;;15.03;;
3407;SDS011;1717;50.240;8.406;2022-12-10T10:53:48;20.37;;;13.40;;
3407;SDS011;1717;50.240;8.406;2022-12-10T10:56:17;22.20;;;14.68;;
3407;SDS011;1717;50.240;8.406;2022-12-10T10:58:51;21.75;;;15.25;;
3407;SDS011;1717;50.240;8.406;2022-12-10T11:01:21;23.47;;;15.50;;
3407;SDS011;1717;50.240;8.406;2022-12-10T11:03:51;21.25;;;13.45;;
3407;SDS011;1717;50.240;8.406;2022-12-10T11:06:21;27.42;;;14.55;;
3407;SDS011;1717;50.240;8.406;2022-12-10T11:08:49;25.65;;;15.10;;
3407;SDS011;1717;50.240;8.406;2022-12-10T11:11:20;22.80;;;14.80;;
3407;SDS011;1717;50.240;8.406;2022-12-10T11:13:51;21.67;;;14.67;;
3407;SDS011;1717;50.240;8.406;2022-12-10T11:16:19;27.10;;;16.17;;
3407;SDS011;1717;50.240;8.406;2022-12-10T11:18:57;28.53;;;16.30;;
3407;SDS011;1717;50.240;8.406;2022-12-10T11:21:27;27.60;;;16.33;;
3407;SDS011;1717;50.240;8.406;2022-12-10T11:23:55;26.33;;;15.10;;
3407;SDS011;1717;50.240;8.406;2022-12-10T11:26:30;23.83;;;16.23;;
3407;SDS011;1717;50.240;8.406;2022-12-10T11:29:16;26.33;;;16.20;;
3407;SDS011;1717;50.240;8.406;2022-12-10T11:31:56;22.70;;;14.53;;
3407;SDS011;1717;50.240;8.406;2022-12-10T11:34:36;24.70;;;16.20;;
3407;SDS011;1717;50.240;8.406;2022-12-10T11:37:16;25.83;;;15.57;;
3407;SDS011;1717;50.240;8.406;2022-12-10T11:39:55;25.67;;;16.27;;
3407;SDS011;1717;50.240;8.406;2022-12-10T11:42:41;19.53;;;13.17;;
3407;SDS011;1717;50.240;8.406;2022-12-10T11:45:17;20.10;;;13.37;;
3407;SDS011;1717;50.240;8.406;2022-12-10T11:48:02;19.60;;;12.60;;
3407;SDS011;1717;50.240;8.406;2022-12-10T11:50:41;21.40;;;13.10;;
3407;SDS011;1717;50.240;8.406;2022-12-10T11:53:19;21.60;;;13.70;;
3407;SDS011;1717;50.240;8.406;2022-12-10T11:56:03;21.97;;;14.40;;
3407;SDS011;1717;50.240;8.406;2022-12-10T11:58:43;25.43;;;14.60;;
3407;SDS011;1717;50.240;8.406;2022-12-10T12:01:34;22.50;;;15.37;;
3407;SDS011;1717;50.240;8.406;2022-12-10T12:04:15;22.47;;;15.27;;
3407;SDS011;1717;50.240;8.406;2022-12-10T12:06:54;25.10;;;15.77;;
3407;SDS011;1717;50.240;8.406;2022-12-10T12:09:36;23.00;;;15.17;;
3407;SDS011;1717;50.240;8.406;2022-12-10T12:12:13;21.27;;;14.50;;
3407;SDS011;1717;50.240;8.406;2022-12-10T12:14:51;23.80;;;15.87;;
3407;SDS011;1717;50.240;8.406;2022-12-10T12:17:25;25.23;;;16.57;;
3407;SDS011;1717;50.240;8.406;2022-12-10T12:19:56;22.90;;;15.13;;
3407;SDS011;1717;50.240;8.406;2022-12-10T12:22:27;25.13;;;19.20;;
3407;SDS011;1717;50.240;8.406;2022-12-10T12:24:57;22.50;;;16.10;;
3407;SDS011;1717;50.240;8.406;2022-12-10T12:27:28;21.60;;;16.40;;
3407;SDS011;1717;50.240;8.406;2022-12-10T12:30:04;26.13;;;16.50;;
3407;SDS011;1717;50.240;8.406;2022-12-10T12:32:44;22.63;;;16.10;;
3407;SDS011;1717;50.240;8.406;2022-12-10T12:35:16;23.80;;;16.00;;
3407;SDS011;1717;50.240;8.406;2022-12-10T12:37:46;20.87;;;15.30;;
3407;SDS011;1717;50.240;8.406;2022-12-10T12:40:21;24.03;;;15.87;;
3407;SDS011;1717;50.240;8.406;2022-12-10T12:42:54;19.53;;;14.77;;
3407;SDS011;1717;50.240;8.406;2022-12-10T12:45:28;24.07;;;14.73;;
3407;SDS011;1717;50.240;8.406;2022-12-10T12:48:09;21.33;;;13.37;;
3407;SDS011;1717;50.240;8.406;2022-12-10T12:50:47;19.63;;;13.20;;
3407;SDS011;1717;50.240;8.406;2022-12-10T12:53:16;19.53;;;14.50;;
3407;SDS011;1717;50.240;8.406;2022-12-10T12:55:48;18.60;;;13.43;;
3407;SDS011;1717;50.240;8.406;2022-12-10T12:58:25;20.67;;;13.43;;
3407;SDS011;1717;50.240;8.406;2022-12-10T13:00:59;22.47;;;14.60;;
3407;SDS011;1717;50.240;8.406;2022-12-10T13:03:36;21.30;;;15.60;;
3407;SDS011;1717;50.240;8.406;2022-12-10T13:06:15;20.53;;;13.77;;
3407;SDS011;1717;50.240;8.406;2022-12-10T13:08:47;18.47;;;13.17;;
3407;SDS011;1717;50.240;8.406;2022-12-10T13:11:16;20.20;;;13.33;;
3407;SDS011;1717;50.240;8.406;2022-12-10T13:16:58;20.00;;;13.03;;
3407;SDS011;1717;50.240;8.406;2022-12-10T13:19:36;17.80;;;12.20;;
3407;SDS011;1717;50.240;8.406;2022-12-10T13:22:07;18.00;;;12.13;;
3407;SDS011;1717;50.240;8.406;2022-12-10T13:24:43;19.10;;;12.63;;
3407;SDS011;1717;50.240;8.406;2022-12-10T13:27:15;19.60;;;12.70;;
3407;SDS011;1717;50.240;8.406;2022-12-10T13:29:44;17.57;;;11.97;;
3407;SDS011;1717;50.240;8.406;2022-12-10T13:32:20;18.07;;;12.80;;
3407;SDS011;1717;50.240;8.406;2022-12-10T13:35:15;18.10;;;12.60;;
3407;SDS011;1717;50.240;8.406;2022-12-10T13:37:53;17.80;;;12.73;;
3407;SDS011;1717;50.240;8.406;2022-12-10T13:40:24;18.73;;;12.40;;
3407;SDS011;1717;50.240;8.406;2022-12-10T13:42:56;19.70;;;12.20;;
3407;SDS011;1717;50.240;8.406;2022-12-10T13:45:50;19.70;;;12.43;;
3407;SDS011;1717;50.240;8.406;2022-12-10T13:48:49;16.73;;;11.27;;
3407;SDS011;1717;50.240;8.406;2022-12-10T13:51:26;18.57;;;12.27;;
3407;SDS011;1717;50.240;8.406;2022-12-10T13:54:15;16.67;;;12.17;;
3407;SDS011;1717;50.240;8.406;2022-12-10T13:56:58;13.30;;;10.17;;
3407;SDS011;1717;50.240;8.406;2022-12-10T13:59:35;12.63;;;8.80;;
3407;SDS011;1717;50.240;8.406;2022-12-10T14:02:21;13.37;;;8.97;;
3407;SDS011;1717;50.240;8.406;2022-12-10T14:05:21;10.80;;;8.30;;
3407;SDS011;1717;50.240;8.406;2022-12-10T14:07:55;11.60;;;8.57;;
3407;SDS011;1717;50.240;8.406;2022-12-10T14:10:27;12.38;;;8.38;;
3407;SDS011;1717;50.240;8.406;2022-12-10T14:12:59;12.98;;;8.85;;
3407;SDS011;1717;50.240;8.406;2022-12-10T14:15:28;15.00;;;9.10;;
3407;SDS011;1717;50.240;8.406;2022-12-10T14:17:59;14.43;;;9.32;;
3407;SDS011;1717;50.240;8.406;2022-12-10T14:20:29;10.73;;;7.57;;
3407;SDS011;1717;50.240;8.406;2022-12-10T14:23:02;11.40;;;7.65;;
3407;SDS011;1717;50.240;8.406;2022-12-10T14:25:45;14.95;;;8.52;;
3407;SDS011;1717;50.240;8.406;2022-12-10T14:28:13;15.50;;;9.63;;
3407;SDS011;1717;50.240;8.406;2022-12-10T14:30:42;11.10;;;7.80;;
3407;SDS011;1717;50.240;8.406;2022-12-10T14:33:11;13.55;;;8.68;;
3407;SDS011;1717;50.240;8.406;2022-12-10T14:35:46;14.95;;;10.07;;
3407;SDS011;1717;50.240;8.406;2022-12-10T14:38:16;18.13;;;9.63;;
3407;SDS011;1717;50.240;8.406;2022-12-10T14:40:46;21.90;;;11.60;;
3407;SDS011;1717;50.240;8.406;2022-12-10T14:43:14;18.05;;;10.70;;
3407;SDS011;1717;50.240;8.406;2022-12-10T14:45:45;18.52;;;10.35;;
3407;SDS011;1717;50.240;8.406;2022-12-10T14:48:17;19.13;;;11.27;;
3407;SDS011;1717;50.240;8.406;2022-12-10T14:50:45;16.63;;;11.27;;
3407;SDS011;1717;50.240;8.406;2022-12-10T14:53:13;15.43;;;10.18;;
3407;SDS011;1717;50.240;8.406;2022-12-10T14:55:42;23.30;;;11.95;;
3407;SDS011;1717;50.240;8.406;2022-12-10T14:58:11;15.07;;;10.80;;
3407;SDS011;1717;50.240;8.406;2022-12-10T15:00:42;17.77;;;12.05;;
3407;SDS011;1717;50.240;8.406;2022-12-10T15:03:10;19.02;;;11.85;;
3407;SDS011;1717;50.240;8.406;2022-12-10T15:05:52;19.17;;;12.57;;
3407;SDS011;1717;50.240;8.406;2022-12-10T15:08:22;19.42;;;12.23;;
3407;SDS011;1717;50.240;8.406;2022-12-10T15:10:51;20.23;;;13.82;;
3407;SDS011;1717;50.240;8.406;2022-12-10T15:13:22;21.17;;;12.57;;
3407;SDS011;1717;50.240;8.406;2022-12-10T15:15:51;18.40;;;12.45;;